Список аэропортов
Фактическая погода:

24 июня, 23:30
Температура: +11°C (+11.0*)
Ветер: перем. 1 м/с
Давление: *760 мм
разорв. обл.
кучево-дождевые 1440 м
разорв. обл.
2280 м
Время (МСК)Темп. СВетерВлажностьДавлениеОблачностьОсадки
21:00+15Ю, 2 м/с64%1012 гПамалооблачно
22:00+13Ю, 2 м/с75%1013 гПаясно
23:00+12ЮВ, 2 м/с84%1013 гПаясно
25 июня
00:00+11Ю, 3 м/с93%1013 гПаясно
01:00+11Ю, 3 м/с97%1013 гПаясно
02:00+10Ю, 2 м/с99%1014 гПамалооблачно
03:00+10Ю, 2 м/с100%1014 гПас прояснениями
04:00+9ЮВ, 2 м/с100%1014 гПаоблачно
05:00+10ЮВ, 2 м/с100%1014 гПаоблачно
06:00+10ЮВ, 2 м/с98%1014 гПаоблачно
07:00+11ЮВ, 1 м/с92%1014 гПаоблачно
08:00+13ЮВ, 2 м/с79%1014 гПамалооблачно
09:00+16ЮВ, 4 м/с68%1014 гПаоблачно
10:00+16Ю, 5 м/с69%1014 гПаоблачносл. дождь
11:00+16Ю, 5 м/с75%1014 гПаоблачнодождь
12:00+16Ю, 5 м/с81%1014 гПаоблачнодождь
13:00+17Ю, 4 м/с73%1015 гПас прояснениямидождь
14:00+19Ю, 4 м/с59%1015 гПас прояснениями
15:00+19Ю, 4 м/с54%1015 гПас прояснениямисл. дождь
16:00+20Ю, 5 м/с46%1015 гПас прояснениямисл. дождь
17:00+20Ю, 5 м/с45%1015 гПас прояснениями
18:00+19ЮЗ, 4 м/с53%1015 гПаоблачносл. дождь
19:00+17Ю, 2 м/с74%1016 гПаоблачнодождь
20:00+17Ю, 2 м/с74%1016 гПаоблачнодождь
21:00+16ЮВ, 1 м/с84%1017 гПас прояснениямисл. дождь
22:00+15В, 1 м/с89%1017 гПас прояснениями
23:00+14В, 1 м/с94%1017 гПаоблачно
26 июня
00:00+13В, 1 м/с96%1018 гПаоблачнодождь
01:00+13В, 1 м/с97%1018 гПаоблачно
02:00+13В, 1 м/с98%1019 гПаоблачно
03:00+12В, 1 м/с99%1018 гПас прояснениями
04:00+12ЮВ, 1 м/с99%1019 гПас прояснениями
05:00+12В, 1 м/с99%1019 гПас прояснениями
06:00+12В, 1 м/с99%1020 гПаоблачно
07:00+13В, 1 м/с97%1020 гПамалооблачно
08:00+15В, 1 м/с90%1020 гПаясно
09:00+17ЮВ, 2 м/с79%1020 гПаясно
10:00+19ЮВ, 2 м/с62%1021 гПас прояснениями
11:00+20ЮВ, 3 м/с51%1021 гПаоблачно
12:00+22ЮВ, 3 м/с48%1021 гПаоблачно
13:00+22Ю, 2 м/с46%1021 гПаоблачно
14:00+23ЮВ, 1 м/с45%1021 гПаоблачно
15:00+24В, 2 м/с45%1021 гПаоблачно
16:00+24В, 2 м/с47%1021 гПас прояснениямисл. дождь
17:00+24СВ, 3 м/с51%1021 гПаясно
18:00+21В, 2 м/с71%1021 гПас прояснениямидождь
19:00+21СВ, 2 м/с70%1021 гПас прояснениямидождь
20:00+21С, 2 м/с70%1021 гПас прояснениями
21:00+20С, 2 м/с76%1022 гПас прояснениями